x

9444090 - Port Angeles, Wa (ptaw1) Weather Station

6:30 - Mon 16th Jan 2017 All times are PST. -8 hours from GMT.

  • Wind
    3mph, 6mph gusts
  • Sea Temp 45°f
  • Ar Temp 36°f
  • Sea Pressure 1022.1mb
  • 9444090 - Port Angeles, Wa
  • 9444090 - Port Angeles, Wa

More Historic Weather Station data

Upgrade to MSW Pro to gain access to the past 30 days of data for over 8000 Wavebouys and Weather Stations around the globe.

Join Pro

Comparision Forecast

View Surf forecast
   
Seg 01/16 6:30 3 6 mph 1022.1mb 45f 36f
6:24 2 6 mph 1022.3mb 45f 36f
6:18 3 7 mph 1022.4mb 45f 36f
6:12 7 8 mph 1022.5mb 45f 36f
6:06 7 8 mph 1022.6mb 45f 36f
6:00 7 8 mph 1022.7mb 45f 35f
5:36 7 8 mph 1022.5mb 45f 35f
5:30 7 8 mph 1022.7mb 45f 35f
5:24 8 10 mph 1022.8mb 45f 35f
5:18 8 10 mph 1023.2mb 45f 36f
5:12 8 9 mph 1023.1mb 45f 36f
5:06 8
mph
1023.2mb 45f 35f
5:00 7 8 mph 1023.1mb 45f 35f
4:36 7 8 mph 1023.1mb 45f 35f
4:30 5 6 mph 1023mb 45f 35f
4:24 6 7 mph 1023.2mb 45f 35f
4:18 6 7 mph 1023.4mb 45f 35f
4:12 7 8 mph 1023.6mb 45f 35f
4:06 7 8 mph 1023.6mb 45f 34f
4:00 6 7 mph 1023.6mb 45f 34f
3:36 5 7 mph 1023.8mb 45f 34f
3:30 3 6 mph 1023.6mb 45f 34f
3:24 5 7 mph 1023.7mb 45f 34f
3:18 6 7 mph 1023.8mb 45f 35f
3:12 6 8 mph 1023.9mb 45f 35f
3:06 6 8 mph 1023.9mb 45f 34f
3:00 5 6 mph 1023.8mb 45f 34f
2:36 6 7 mph 1024.2mb 45f 34f
2:30 7 8 mph 1024.6mb 45f 35f
2:24 7 8 mph 1024.4mb 45f 34f
2:18 6 7 mph 1024.6mb 45f 34f
2:12 7 8 mph 1024.5mb 45f 34f
2:06 6 8 mph 1024.5mb 45f 34f
2:00 5 7 mph 1024.4mb 45f 34f
1:36 5 6 mph 1023.9mb 45f 34f
1:30 5 6 mph 1024mb 45f 34f
1:24 5 6 mph 1024mb 45f 35f
1:18 5 6 mph 1024.1mb 45f 34f
1:12 3 6 mph 1024mb 45f 34f
1:06 3 6 mph 1024.1mb 45f 34f
1:00 5 6 mph 1024.4mb 45f 34f
12:36 2 3 mph 1024.8mb 45f 34f
12:30 3 6 mph 1024.9mb 45f 34f
12:24 5 6 mph 1024.9mb 45f 35f
12:18 5 6 mph 1024.9mb 45f 35f
12:12 5 6 mph 1025mb 45f 35f
12:06 5 6 mph 1025.1mb 45f 35f
12:00 3 5 mph 1025.1mb 45f 35f
Dom 01/15 11:36 5 6 mph 1025.3mb 45f 35f
11:30 5 6 mph 1025.4mb 45f 35f
11:24 5 6 mph 1025.3mb 45f 35f
11:18 3 5 mph 1025.2mb 45f 35f
11:12 5 6 mph 1025.5mb 45f 36f
11:06 6
mph
1025.5mb 45f 35f
11:00 3 5 mph 1025.3mb 45f 35f
10:36 6 7 mph 1025.7mb 45f 35f
10:30 6 7 mph 1025.5mb 45f 35f
10:24 5 6 mph 1025.6mb 45f 35f
10:18 6 7 mph 1025.8mb 45f 35f
10:12 6 8 mph 1026mb 45f 35f
10:06 7 9 mph 1026mb 45f 35f
10:00 6 7 mph 1026mb 45f 35f
9:36 5 6 mph 1025.8mb 45f 35f
9:30 6 7 mph 1026mb 45f 35f
9:24 7 9 mph 1026.1mb 45f 35f
9:18 7 9 mph 1026mb 45f 35f
9:12 7 9 mph 1026mb 45f 35f
9:06 8 9 mph 1026.2mb 45f 36f
9:00 8 9 mph 1026.2mb 45f 36f
8:36 6 8 mph 1025.8mb 45f 35f
8:30 6 8 mph 1025.7mb 45f 35f
8:24 7 8 mph 1025.6mb 45f 35f
8:18 6 9 mph 1025.6mb 45f 35f
8:12 7 9 mph 1025.5mb 45f 35f
8:06 5 6 mph 1025.4mb 45f 34f
8:00 5 7 mph 1025.5mb 45f 35f
7:36 5 6 mph 1025.6mb 45f 34f
7:30 5 6 mph 1025.6mb 45f 34f
7:24 3 6 mph 1025.8mb 45f 34f
7:18 5 6 mph 1025.7mb 45f 34f
7:12 3 6 mph 1025.7mb 45f 34f
7:06 5 7 mph 1025.7mb 45f 34f
7:00 5 6 mph 1025.7mb 45f 34f
6:36 3 5 mph 1025.5mb 45f 35f
6:30 3 5 mph 1025.3mb 45f 34f
6:24 3 5 mph 1025.2mb 45f 35f
6:18 3 5 mph 1025.2mb 45f 35f
6:12 5
mph
1025.1mb 45f 35f
6:06 5 6 mph 1025.2mb 45f 35f
6:00 5 6 mph 1025.1mb 45f 35f
5:36 1 3 mph 1025.2mb 45f 35f
5:30 2 3 mph 1025.1mb 45f 35f
5:24 3 5 mph 1024.9mb 45f 36f
5:18 3 5 mph 1025.1mb 45f 36f
5:12 5 6 mph 1025.3mb 45f 36f
5:06 3 5 mph 1025.4mb 45f 37f
5:00 5 6 mph 1025.4mb 45f 37f
4:36 5 6 mph 1025.6mb 45f 41f
4:30 5 6 mph 1025.7mb 45f 41f
4:24 5 8 mph 1025.7mb 45f 42f
4:18 6 8 mph 1025.7mb 45f 42f
4:12 6 8 mph 1025.8mb 45f 42f
4:06 6
mph
1025.9mb 45f 42f
4:00 5 6 mph 1026mb 45f 42f
3:36 5 6 mph 1026mb 45f 42f
3:30 3 6 mph 1026mb 45f 42f
3:24 5 6 mph 1025.9mb 45f 42f
3:18 5 6 mph 1025.8mb 45f 42f
3:12 5 6 mph 1025.8mb 45f 43f
3:06 5 6 mph 1025.7mb 45f 42f
3:00 5 6 mph 1025.7mb 45f 42f
2:36 5 7 mph 1025.5mb 45f 42f
2:30 5 6 mph 1025.5mb 45f 42f
2:24 3 6 mph 1025.5mb 45f 42f
2:18 2 3 mph 1025.6mb 45f 43f
2:12 1 2 mph 1025.6mb 45f 43f
2:06 2 3 mph 1025.6mb 45f 44f
2:00 1 3 mph 1025.6mb 45f 44f
1:36 5 6 mph 1025.7mb 45f 43f
1:30 3 5 mph 1025.7mb 45f 43f
1:24 3 5 mph 1025.6mb 45f 43f
1:18 3 5 mph 1025.5mb 45f 44f
1:12 3 6 mph 1025.5mb 45f 43f
1:06 5 6 mph 1025.5mb 45f 43f
1:00 5 6 mph 1025.5mb 45f 44f
12:36 5 6 mph 1025.5mb 45f 45f
12:30 5 6 mph 1025.5mb 45f 44f
12:24 5
mph
1025.4mb 45f 43f
12:18 3 5 mph 1025.5mb 45f 44f
12:12 3 6 mph 1025.6mb 45f 44f
12:06 5 6 mph 1025.6mb 45f 43f
12:00 5 6 mph 1025.7mb 45f 42f
11:36 7 8 mph 1026.1mb 45f 41f
11:30 7 8 mph 1026.2mb 45f 41f
11:24 6 8 mph 1026.3mb 45f 41f
11:18 7 8 mph 1026.5mb 45f 41f
11:12 5 7 mph 1026.7mb 45f 42f
11:06 6 7 mph 1026.7mb 45f 41f
11:00 6 7 mph 1026.7mb 45f 41f
10:36 1 2 mph 1026.6mb 45f 39f
10:30 1 2 mph 1026.6mb 45f 40f
10:24 2 3 mph 1026.6mb 45f 40f
10:18 3
mph
1026.5mb 45f 39f
10:12 2 3 mph 1026.4mb 45f 39f
10:06 3 5 mph 1026.3mb 45f 38f
10:00 3 6 mph 1026.3mb 45f 37f
9:36 3 5 mph 1026mb 45f 37f
9:30 5
mph
1025.9mb 45f 37f
9:24 5 6 mph 1025.7mb 45f 36f
9:18 5 7 mph 1025.6mb 45f 35f
9:12 5 7 mph 1025.6mb 45f 34f
9:06 6 8 mph 1025.5mb 45f 33f
9:00 6 8 mph 1025.5mb 45f 33f
8:36 7 8 mph 1025.6mb 45f 32f
8:30 6 8 mph 1025.6mb 45f 31f
8:24 6 8 mph 1025.6mb 45f 31f
8:18 6 8 mph 1025.6mb 45f 30f
8:12 8
mph
1025.6mb 45f 29f
8:06 8 9 mph 1025.6mb 45f 30f
8:00 8 9 mph 1025.7mb 45f 30f
7:36 7 8 mph 1025.6mb 45f 30f
7:30 7 8 mph 1025.6mb 45f 30f
7:24 7 8 mph 1025.6mb 45f 30f
7:18 7 9 mph 1025.7mb 45f 30f
7:12 8 9 mph 1025.6mb 45f 30f
7:06 8 9 mph 1025.8mb 45f 30f
7:00 8 9 mph 1025.8mb 45f 30f
6:54 7 8 mph 1025.9mb 45f 30f
6:48 7 8 mph 1025.9mb 45f 30f
6:36 6 9 mph 1025.9mb 45f 30f
6:30 7 8 mph 1026mb 45f 30f
6:24 7 9 mph 1026mb 45f 30f
6:18 8 10 mph 1026.1mb 45f 30f
6:12 8 9 mph 1026.1mb 45f 30f
6:06 8 9 mph 1026.1mb 45f 30f
6:00 8 9 mph 1026.1mb 45f 31f
5:36 6 7 mph 1025.8mb 45f 31f
5:30 6 7 mph 1025.8mb 45f 31f
5:24 7 8 mph 1025.6mb 45f 31f
5:18 6 8 mph 1025.7mb 45f 31f
5:12 7 8 mph 1025.9mb 45f 30f
5:06 5 6 mph 1026mb 45f 30f
5:00 5 6 mph 1026mb 45f 31f
4:54 6 8 mph 1026.1mb 45f 31f
4:48 7 9 mph 1026.1mb 45f 31f
4:36 7 8 mph 1026mb 45f 31f
4:30 7 8 mph 1026.1mb 45f 31f
4:24 7 9 mph 1026.1mb 45f 31f
4:18 8 9 mph 1026.2mb 45f 31f
4:12 7 9 mph 1026.2mb 45f 31f
4:06 7 9 mph 1026.3mb 45f 32f
4:00 7 8 mph 1026.3mb 45f 32f
3:54 5 7 mph 1026.4mb 45f 32f
3:48 5 6 mph 1026.4mb 45f 33f
3:36 3 5 mph 1026.5mb 45f 32f
3:30 5 6 mph 1026.5mb 45f 33f
3:24 5 6 mph 1026.6mb 45f 32f
3:18 5 6 mph 1026.5mb 45f 32f
3:12 3 6 mph 1026.7mb 45f 32f
3:06 3 6 mph 1026.7mb 45f 32f
3:00 6 8 mph 1026.7mb 45f 33f
2:54 7 8 mph 1026.9mb 45f 32f
2:48 6 7 mph 1026.8mb 45f 33f
2:36 6 7 mph 1026.6mb 45f 33f
2:30 5 6 mph 1026.5mb 45f 32f
2:24 5 7 mph 1026.3mb 45f 32f
2:18 6 8 mph 1026.4mb 45f 33f
2:12 7 8 mph 1026.4mb 45f 33f
2:06 5 7 mph 1026.2mb 45f 33f
2:00 6 7 mph 1026.2mb 45f 33f
1:54 6 7 mph 1026.1mb 45f 33f
1:48 6 7 mph 1026.1mb 45f 33f
1:36 5 6 mph 1026.1mb 45f 33f
1:30 5 6 mph 1025.9mb 45f 33f
1:24 3 5 mph 1025.9mb 45f 33f
1:18 5 6 mph 1026mb 45f 33f
1:12 3 6 mph 1025.9mb 45f 33f
1:06 5 6 mph 1026mb 45f 33f
1:00 5 6 mph 1026mb 45f 32f
12:54 6 7 mph 1026mb 45f 33f
12:48 5 6 mph 1026.1mb 45f 33f
12:36 5 6 mph 1025.9mb 45f 32f
12:30 5 6 mph 1025.9mb 45f 32f
12:24 5 6 mph 1026mb 45f 32f
12:18 6 7 mph 1026mb 45f 32f
12:12 6 7 mph 1026.1mb 45f 32f
12:06 7 8 mph 1026.1mb 45f 32f
12:00 7 9 mph 1026.1mb 45f 32f
Sáb 01/14 11:54 8 9 mph 1026.1mb 45f 32f
11:48 8 9 mph 1026mb 45f 32f
11:36 6 7 mph 1025.9mb 45f 33f
11:30 6 8 mph 1025.8mb 45f 32f
11:24 6 7 mph 1025.7mb 45f 32f
11:18 5 6 mph 1025.5mb 45f 32f
11:12 6 8 mph 1025.6mb 45f 32f
11:06 7 9 mph 1025.7mb 45f 32f
11:00 7 9 mph 1025.8mb 45f 32f
10:54 8 10 mph 1025.7mb 45f 32f
10:48 7 9 mph 1025.7mb 45f 32f
10:36 6 8 mph 1025.6mb 45f 32f
10:30 6 7 mph 1025.7mb 45f 32f
10:24 6 7 mph 1025.6mb 45f 32f
10:18 6 8 mph 1025.5mb 45f 32f
10:12 6 8 mph 1025.5mb 45f 32f
10:06 6 7 mph 1025.6mb 45f 32f
10:00 6 7 mph 1025.6mb 45f 31f
9:54 7 8 mph 1025.6mb 45f 31f
9:48 7 8 mph 1025.7mb 45f 32f
9:36 7 8 mph 1025.9mb 45f 31f
9:30 7 9 mph 1025.9mb 45f 31f
9:24 7 8 mph 1025.8mb 45f 32f
9:18 8 9 mph 1025.9mb 45f 32f
9:12 7 9 mph 1025.9mb 45f 31f
9:06 7 8 mph 1026mb 45f 32f
9:00 7 8 mph 1026.1mb 45f 32f
8:54 7 9 mph 1026mb 45f 32f
8:48 7 8 mph 1026mb 45f 32f
8:36 8 9 mph 1025.9mb 45f 31f
8:30 8
mph
1026mb 45f 31f
8:24 7 8 mph 1025.9mb 45f 31f
8:18 8 9 mph 1026mb 45f 31f
8:12 8 9 mph 1025.9mb 45f 31f
8:06 7 9 mph 1025.9mb 45f 31f
8:00 7 9 mph 1025.9mb 45f 32f
7:54 8 9 mph 1025.9mb 45f 32f
7:48 8 9 mph 1025.8mb 45f 31f
7:36 8 9 mph 1025.8mb 45f 31f
7:30 7 8 mph 1025.8mb 45f 31f
7:24 7 8 mph 1025.9mb 45f 31f
7:18 7 9 mph 1025.9mb 45f 31f
7:12 7 8 mph 1025.9mb 45f 31f
7:06 8 9 mph 1025.9mb 45f 31f
7:00 7 8 mph 1025.9mb 45f 31f
6:54 7 8 mph 1025.8mb 45f 31f
6:48 7 8 mph 1025.7mb 45f 31f
6:36 7 8 mph 1025.7mb 45f 32f
6:30 6 7 mph 1025.6mb 45f 32f
6:24 5 6 mph 1025.6mb 45f 33f
6:18 6 9 mph 1025.6mb 45f 32f
6:12 6 8 mph 1025.5mb 45f 32f
6:06 3 6 mph 1025.4mb 45f 32f
6:00 5
mph
1025.3mb 45f 32f
5:54 3 5 mph 1025.4mb 45f 32f
5:48 5 6 mph 1025.5mb 45f 33f
5:36 6 7 mph 1025.6mb 45f 33f
5:30 5 6 mph 1025.6mb 45f 33f
5:24 3 5 mph 1025.4mb 45f 33f
5:18 5 6 mph 1025.6mb 45f 33f
5:12 3 6 mph 1025.6mb 45f 34f
5:06 5
mph
1025.7mb 45f 34f
5:00 3 5 mph 1025.7mb 45f 34f
4:54 3 5 mph 1025.8mb 45f 34f
4:48 3 5 mph 1025.9mb 45f 35f
4:36 3 5 mph 1025.9mb 45f 36f
4:30 3
mph
1026mb 45f 38f
4:24 3 6 mph 1026.1mb 45f 38f
4:18 5 8 mph 1026.1mb 45f 39f
4:12 7 9 mph 1026.2mb 45f 39f
4:06 6 9 mph 1026.3mb 45f 39f
4:00 7 9 mph 1026.3mb 45f 39f
3:54 7 8 mph 1026.4mb 45f 39f
3:48 7 8 mph 1026.4mb 45f 39f
3:36 7 9 mph 1026.5mb 45f 39f
3:30 6 9 mph 1026.6mb 45f 39f
3:24 6 8 mph 1026.7mb 45f 39f
3:18 5 7 mph 1026.7mb 45f 39f
3:12 6 8 mph 1026.8mb 45f 39f
3:06 6 9 mph 1026.8mb 45f 39f
3:00 6 8 mph 1026.9mb 45f 39f
2:54 6 9 mph 1027mb 45f 39f
2:48 6 7 mph 1027.1mb 45f 39f
2:36 6 8 mph 1027.1mb 45f 39f
2:30 6 7 mph 1027.1mb 45f 39f
2:24 6 8 mph 1027mb 45f 39f
2:18 6 8 mph 1027mb 45f 39f
2:12 6 8 mph 1026.9mb 45f 39f
2:06 6 8 mph 1027mb 45f 39f
2:00 6 9 mph 1027mb 45f 39f
1:54 6 8 mph 1027.1mb 45f 38f
1:48 6 8 mph 1027.2mb 45f 38f
1:36 6 8 mph 1027.4mb 45f 39f
1:30 5 7 mph 1027.4mb 45f 40f
1:24 6 7 mph 1027.5mb 45f 40f
1:18 5 7 mph 1027.7mb 45f 40f
1:12 5 8 mph 1027.7mb 45f 40f
1:06 3 6 mph 1027.8mb 45f 40f
1:00 3 6 mph 1027.8mb 45f 40f
12:54 5 8 mph 1027.9mb 45f 40f
12:48 5 8 mph 1028mb 45f 40f
12:36 5 6 mph 1028.2mb 45f 39f
12:30 3 7 mph 1028.3mb 45f 39f
12:24 3 7 mph 1028.3mb 45f 39f
12:18 3 6 mph 1028.4mb 45f 41f
12:12 3 8 mph 1028.5mb 45f 40f
12:06 3 6 mph 1028.6mb 45f 41f
12:00 2 5 mph 1028.7mb 45f 40f
11:54 2 5 mph 1028.8mb 45f 39f
11:48 2 3 mph 1028.8mb 45f 40f
11:36 2 6 mph 1028.9mb 45f 40f
11:30 3 6 mph 1028.9mb 45f 40f
11:24 2 3 mph 1028.9mb 45f 40f
11:18 3 5 mph 1029mb 45f 40f
11:12 1 2 mph 1029.1mb 45f 41f
11:06 1 2 mph 1029.1mb 45f 40f
11:00 1 2 mph 1029.2mb 45f 40f
10:54 1 2 mph 1029.3mb 45f 39f
10:48 2 3 mph 1029.3mb 45f 38f
10:36 2 3 mph 1029.3mb 45f 37f
10:30 2
mph
1029.3mb 45f 37f
10:24 2 3 mph 1029.3mb 45f 37f
10:18 3
mph
1029.2mb 45f 37f
10:12 2 3 mph 1029.3mb 45f 36f
10:06 3
mph
1029.4mb 45f 36f
10:00 2 3 mph 1029.5mb 45f 36f
9:54 2 5 mph 1029.5mb 45f 35f
9:48 3 5 mph 1029.6mb 45f 35f
9:36 3 5 mph 1029.8mb 45f 34f
9:30 3 5 mph 1029.8mb 45f 33f
9:24 3 5 mph 1029.9mb 45f 33f
9:18 3 5 mph 1030mb 45f 32f
9:12 3 5 mph 1030mb 45f 32f
9:06 3 6 mph 1030mb 45f 31f
9:00 6 7 mph 1029.9mb 45f 31f
8:54 5 6 mph 1029.9mb 45f 30f
8:48 3 5 mph 1029.9mb 45f 29f
8:36 3 6 mph 1030mb 45f 29f
8:30 5 6 mph 1030mb 45f 29f
8:24 5 6 mph 1030mb 45f 28f
8:18 5 6 mph 1029.9mb 45f 28f
8:12 5 6 mph 1029.8mb 45f 28f
8:06 5 8 mph 1029.9mb 45f 28f
8:00 7 8 mph 1029.8mb 45f 27f
7:54 7 9 mph 1029.7mb 45f 28f
7:48 6 8 mph 1029.6mb 45f 27f
7:36 7 8 mph 1029.5mb 45f 28f
7:30 5 6 mph 1029.5mb 45f 28f
7:24 6 8 mph 1029.6mb 45f 28f
7:18 6 7 mph 1029.5mb 45f 28f
7:12 3 6 mph 1029.4mb 45f 28f
7:06 5 6 mph 1029.5mb 45f 28f
7:00 5 7 mph 1029.6mb 45f 28f
6:54 5 6 mph 1029.7mb 45f 28f
6:48 5 7 mph 1029.8mb 45f 28f
6:36 5 9 mph 1030.1mb 45f 28f
6:30 7 9 mph 1030.4mb 45f 28f
6:24 7 8 mph 1030.5mb 45f 28f
6:18 8 9 mph 1030.6mb 45f 28f
6:12 7 9 mph 1030.5mb 45f 28f
6:06 6 8 mph 1030.5mb 45f 28f
6:00 7 9 mph 1030.6mb 45f 28f
5:54 8 9 mph 1030.6mb 45f 28f
5:48 7 9 mph 1030.7mb 45f 28f
5:36 8 10 mph 1030.9mb 45f 28f
5:30 8 10 mph 1030.9mb 45f 29f
5:24 8 10 mph 1030.9mb 45f 29f
5:18 8 11 mph 1030.8mb 45f 28f
5:12 6
mph
1030.3mb 45f 28f
5:06 6 7 mph 1030.5mb 45f 28f
5:00 6 8 mph 1030.6mb 45f 28f
4:54 5 8 mph 1030.6mb 45f 28f
4:48 8
mph
1030.8mb 45f 28f
4:36 7 9 mph 1030.8mb 45f 28f
4:30 8 9 mph 1030.9mb 45f 28f
4:24 7 9 mph 1031mb 45f 28f
4:18 7 8 mph 1031.1mb 45f 28f
4:12 7 8 mph 1031.1mb 45f 28f
4:06 7 8 mph 1031.1mb 45f 29f
4:00 6 7 mph 1031mb 45f 29f
3:54 5 8 mph 1031.1mb 45f 29f
3:48 7 9 mph 1031.1mb 45f 29f
3:36 5 7 mph 1031.2mb 45f 29f
3:30 5 8 mph 1031.2mb 45f 29f
3:24 7 8 mph 1031.2mb 45f 29f
3:18 7 9 mph 1031.3mb 45f 29f
3:12 7 9 mph 1031.2mb 45f 29f
3:06 7 8 mph 1031.1mb 45f 29f
3:00 7 9 mph 1031mb 45f 29f
2:54 7 8 mph 1031mb 45f 29f
2:48 5 7 mph 1030.9mb 45f 29f
2:36 5 6 mph 1030.9mb 45f 29f
2:30 6 8 mph 1030.9mb 45f 29f
2:24 6 7 mph 1030.8mb 45f 29f
2:18 6 7 mph 1030.8mb 45f 29f
2:12 5 8 mph 1031mb 45f 29f
2:06 7 8 mph 1031.1mb 45f 29f
2:00 8 9 mph 1031.1mb 45f 29f
1:54 7 8 mph 1031.2mb 45f 29f
1:48 6 8 mph 1031.1mb 45f 29f
1:36 7 9 mph 1031.2mb 45f 29f
1:30 7 8 mph 1031.2mb 45f 29f
1:24 7
mph
1031.2mb 45f 29f
1:18 5 8 mph 1031.1mb 45f 30f
1:12 7 9 mph 1031.3mb 45f 30f
1:06 8 9 mph 1031.2mb 45f 30f
1:00 7 9 mph 1031.2mb 45f 30f
12:54 8 9 mph 1031.3mb 45f 30f
12:48 8 9 mph 1031.3mb 45f 30f
12:36 7 9 mph 1031.3mb 45f 30f
12:30 7 8 mph 1031.2mb 45f 31f
12:24 6 8 mph 1031.1mb 45f 31f
12:18 6 7 mph 1031mb 45f 31f
12:12 6
mph
1031mb 45f 31f
12:06 5 6 mph 1030.9mb 45f 31f
12:00 6 7 mph 1031mb 45f 31f
Sex 01/13 11:54 5 7 mph 1030.9mb 45f 31f
11:48 5 6 mph 1030.9mb 45f 31f
11:36 6 7 mph 1030.8mb 45f 32f
11:30 5 6 mph 1030.9mb 45f 32f
11:24 5 7 mph 1030.9mb 45f 32f
11:18 5 6 mph 1031mb 45f 32f
11:12 5 6 mph 1031mb 45f 32f
11:06 5 6 mph 1031mb 45f 32f
11:00 5 6 mph 1031.1mb 45f 32f
10:54 5 6 mph 1031.1mb 45f 32f
10:48 6 8 mph 1031.1mb 45f 32f
10:36 6 7 mph 1031.1mb 45f 32f
10:30 3 6 mph 1031.1mb 45f 32f
10:24 3 5 mph 1031.1mb 45f 32f
10:18 3 6 mph 1031.1mb 45f 32f
10:12 5 6 mph 1031.1mb 45f 32f
10:06 5 6 mph 1031.1mb 45f 32f
10:00 5 6 mph 1031.1mb 45f 32f
9:54 6 7 mph 1031.1mb 45f 32f
9:48 6
mph
1031.2mb 45f 32f
9:36 5 6 mph 1031.4mb 45f 33f
9:30 6 7 mph 1031.4mb 45f 33f
9:24 5 6 mph 1031.4mb 45f 33f
9:18 5 6 mph 1031.4mb 45f 33f
9:12 6 7 mph 1031.5mb 45f 33f
9:06 6 7 mph 1031.5mb 45f 33f
9:00 5
mph
1031.5mb 45f 33f
8:54 3 5 mph 1031.5mb 45f 33f
8:48 5 6 mph 1031.5mb 45f 33f
8:36 5 6 mph 1031.4mb 45f 33f
8:30 5 6 mph 1031.5mb 45f 33f
8:24 5
mph
1031.4mb 45f 33f
8:18 3 5 mph 1031.3mb 45f 33f
8:12 5
mph
1031.3mb 45f 33f
8:06 3 5 mph 1031.3mb 45f 33f
8:00 3 5 mph 1031.2mb 45f 33f
7:54 5 6 mph 1031.2mb 45f 33f
7:48 5 6 mph 1031.1mb 45f 33f
7:36 3 5 mph 1031mb 45f 34f
7:30 5
mph
1031.1mb 45f 34f
7:24 5 6 mph 1031.1mb 45f 34f
7:18 5 6 mph 1031.2mb 45f 34f
7:12 5 6 mph 1031.1mb 45f 34f
7:06 6 7 mph 1031.1mb 45f 33f
7:00 6 7 mph 1031.2mb 45f 34f
6:54 6 7 mph 1031.2mb 45f 33f
6:48 5 6 mph 1031.2mb 45f 34f
6:36 5 6 mph 1031.3mb 45f 33f
6:30 5
mph
1031.3mb 45f 33f
6:24 5
mph
1031.4mb 45f 33f
6:18 3 6 mph 1031.5mb 45f 34f
6:12 6 7 mph 1031.6mb 45f 34f
6:06 6 7 mph 1031.6mb 45f 34f
6:00 7 8 mph 1031.6mb 45f 34f
5:54 6 7 mph 1031.6mb 45f 34f
5:48 6 7 mph 1031.7mb 45f 34f
5:36 6 7 mph 1031.5mb 45f 34f
5:30 5 6 mph 1031.5mb 45f 34f
5:24 5 6 mph 1031.4mb 45f 35f
5:18 3 6 mph 1031.2mb 45f 35f
5:12 5 6 mph 1031.2mb 45f 35f
5:06 5
mph
1031mb 45f 36f
5:00 5 6 mph 1031mb 45f 36f
4:54 6 8 mph 1030.9mb 45f 36f
4:48 6 8 mph 1030.9mb 45f 37f
4:36 6 8 mph 1030.8mb 45f 37f
4:30 8 9 mph 1030.7mb 45f 37f
4:24 7 8 mph 1030.7mb 45f 37f
4:18 7 9 mph 1030.8mb 45f 37f
4:12 8 10 mph 1030.8mb 45f 37f
4:06 7 9 mph 1030.9mb 45f 37f
4:00 6 8 mph 1030.9mb 45f 37f
3:36 6 7 mph 1031.1mb 45f 37f
3:30 6 7 mph 1031.1mb 45f 37f
3:24 6 7 mph 1031.2mb 45f 37f
3:18 5 6 mph 1031.2mb 45f 38f
3:12 5 6 mph 1031.2mb 45f 37f
3:06 3 6 mph 1031.2mb 45f 38f
3:00 5 6 mph 1031.3mb 45f 37f
2:54 3 5 mph 1031.3mb 45f 37f
2:48 5 6 mph 1031.3mb 45f 37f
2:36 6 7 mph 1031.3mb 45f 37f
2:30 2 5 mph 1031.3mb 45f 38f
2:24 2 3 mph 1031.3mb 45f 38f
2:18 1 5 mph 1031.2mb 45f 37f
2:12 2 6 mph 1031mb 45f 37f
2:06 3 6 mph 1030.9mb 45f 37f
2:00 5 6 mph 1030.8mb 45f 37f
1:54 5 7 mph 1030.7mb 45f 38f
1:48 5 6 mph 1030.7mb 45f 37f
1:36 3 6 mph 1030.7mb 45f 37f
1:30 2 5 mph 1030.6mb 45f 38f
1:24 6 9 mph 1030.5mb 45f 37f
1:18 3 6 mph 1030.6mb 45f 37f
1:12 5 7 mph 1030.6mb 45f 38f
1:06 5 7 mph 1030.8mb 45f 37f
1:00 6 8 mph 1030.9mb 45f 38f
12:54 6 7 mph 1030.8mb 45f 37f
12:48  -  2 mph 1031mb 45f 38f
12:36 1 3 mph 1031.2mb 45f 37f
12:30 2 5 mph 1031.3mb 45f 37f
12:24 5 6 mph 1031.2mb 45f 37f
12:18 2 5 mph 1031.2mb 45f 37f
12:12 2 6 mph 1031.4mb 45f 37f
12:06 2 6 mph 1031.4mb 45f 37f
12:00 2 6 mph 1031.2mb 45f 38f
11:54 6 7 mph 1031.3mb 45f 37f
11:48 6 7 mph 1031.3mb 45f 37f
11:36 3 6 mph 1031.4mb 45f 37f
11:30 6
mph
1031.6mb 45f 38f
11:24 3 5 mph 1031.6mb 45f 37f
11:18 2 5 mph 1031.7mb 45f 37f
11:12 2 3 mph 1031.7mb 45f 38f
11:06 3 7 mph 1031.8mb 45f 37f
11:00 2 5 mph 1031.9mb 45f 37f
10:54 3 6 mph 1032mb 45f 37f
10:48 6 7 mph 1031.8mb 45f 37f
10:36 6 9 mph 1031.7mb 45f 37f
10:30 5 8 mph 1031.6mb 45f 37f
10:24 5 6 mph 1031.5mb 45f 37f
10:18 6 9 mph 1031.4mb 45f 37f
10:12 7 10 mph 1031.5mb 45f 36f
10:06 6 9 mph 1031.4mb 45f 36f
10:00 1 6 mph 1031.6mb 45f 35f
9:54 3 6 mph 1031.7mb 45f 35f
9:48 5 6 mph 1031.6mb 45f 33f
9:36 3
mph
1031.3mb 45f 33f
9:30 2 3 mph 1031.3mb 45f 33f
9:24 3 5 mph 1031.4mb 45f 33f
9:18 5 6 mph 1031.3mb 45f 33f
9:12 3 5 mph 1031.3mb 45f 32f
9:06 3 5 mph 1031.2mb 45f 32f
9:00 2 3 mph 1031.3mb 45f 32f
8:54 3 5 mph 1031.2mb 45f 32f
8:48 5 7 mph 1031.1mb 45f 32f
8:36 3 6 mph 1030.9mb 45f 32f
8:30 5 6 mph 1031mb 45f 32f
8:24 5 6 mph 1031mb 45f 31f
8:18 6
mph
1030.9mb 45f 31f
8:12 5 6 mph 1030.7mb 45f 31f
8:06 3
mph
1030.6mb 45f 31f
8:00 3 6 mph 1030.5mb 45f 31f
7:54 6 7 mph 1030.7mb 45f 31f
7:48 7 8 mph 1030.8mb 45f 31f
7:36 6 8 mph 1030.6mb 45f 31f
7:30 6 7 mph 1030.4mb 45f 31f
7:24 6 7 mph 1030.3mb 45f 31f
7:18 6 7 mph 1030.3mb 45f 31f
7:12 5 6 mph 1030.3mb 45f 31f
7:06 5 7 mph 1030.3mb 45f 30f
7:00 5 7 mph 1030.2mb 45f 31f
6:36 7 8 mph 1030mb 45f 30f
6:30 6 7 mph 1029.8mb 45f 30f
6:24 6 7 mph 1029.9mb 45f 30f
6:18 6 7 mph 1029.8mb 45f 30f
6:12 6 8 mph 1029.8mb 45f 30f
6:06 6
mph
1029.8mb 45f 30f
6:00 5 7 mph 1029.8mb 45f 30f
5:54 6 7 mph 1029.9mb 45f 30f
5:48 6 8 mph 1030mb 45f 30f
5:36 7 8 mph 1030.1mb 45f 30f
5:30 6 8 mph 1030.2mb 45f 30f
5:24 6 8 mph 1030.1mb 45f 30f
5:18 6 7 mph 1030mb 45f 30f
5:12 6 7 mph 1030.1mb 45f 30f
5:06 6 8 mph 1030.1mb 45f 29f
5:00 7 8 mph 1030.1mb 45f 29f
4:54 7 8 mph 1030.1mb 45f 29f
4:48 6 8 mph 1030.1mb 45f 29f
4:36 6 8 mph 1030mb 45f 29f
4:30 5 6 mph 1030mb 45f 29f
4:24 3 6 mph 1030.2mb 45f 29f
4:18 5 8 mph 1030.2mb 45f 29f
4:12 7 9 mph 1030.2mb 45f 29f
4:06 8 9 mph 1030.2mb 45f 29f
4:00 6 9 mph 1030.1mb 45f 29f
3:54 8 10 mph 1030mb 45f 28f
3:48 8 10 mph 1029.9mb 45f 28f
3:36 9 10 mph 1029.8mb 45f 28f
3:30 9 10 mph 1029.6mb 45f 28f
3:24 8 10 mph 1029.5mb 45f 28f
3:18 7 10 mph 1029.4mb 45f 27f
3:12 8 9 mph 1029.4mb 45f 27f
3:06 8 9 mph 1029.3mb 45f 27f
3:00 7 9 mph 1029.3mb 45f 27f
2:54 8 10 mph 1029.3mb 45f 27f
2:48 8 10 mph 1029.3mb 45f 27f
2:36 8 9 mph 1029.4mb 45f 27f
2:30 8 9 mph 1029.3mb 45f 27f
2:24 7 9 mph 1029.3mb 45f 27f
2:18 7 9 mph 1029.3mb 45f 27f
2:12 8 9 mph 1029.2mb 45f 27f
2:06 8 9 mph 1029mb 45f 27f
2:00 7 9 mph 1028.9mb 45f 27f
1:54 8 9 mph 1028.7mb 45f 27f
1:48 8 10 mph 1028.7mb 45f 28f
1:36 7 8 mph 1028.6mb 45f 27f
1:30 7 9 mph 1028.6mb 45f 27f
1:24 7 9 mph 1028.5mb 45f 27f
1:18 6 8 mph 1028.5mb 45f 28f
1:12 6 8 mph 1028.6mb 45f 28f
1:06 6 7 mph 1028.7mb 45f 28f
1:00 6 7 mph 1028.7mb 45f 28f
12:54 6 7 mph 1028.6mb 45f 28f
12:48 6 7 mph 1028.7mb 45f 28f
12:36 5 7 mph 1028.6mb 45f 28f
12:30 5 7 mph 1028.5mb 45f 28f
12:24 6 10 mph 1028.6mb 45f 28f
12:18 9 10 mph 1028.8mb 45f 28f
12:12 8 9 mph 1028.9mb 45f 28f
12:06 8 9 mph 1028.9mb 45f 28f
12:00 7 8 mph 1028.9mb 45f 28f
Qui 01/12 11:54 6 8 mph 1028.9mb 45f 28f
11:48 7 9 mph 1028.8mb 45f 28f
11:36 7
mph
1029mb 45f 29f
11:30 6 8 mph 1028.8mb 45f 29f
11:24 7 8 mph 1028.8mb 45f 29f
11:18 7 8 mph 1028.6mb 45f 29f
11:12 6 8 mph 1028.5mb 45f 29f
11:06 6 8 mph 1028.4mb 45f 29f
11:00 7 8 mph 1028.2mb 45f 29f
10:54 6 7 mph 1028.1mb 45f 29f
10:48 7 8 mph 1028.2mb 45f 29f
10:36 7 9 mph 1028.1mb 45f 29f
10:30 7 9 mph 1028.1mb 45f 29f
10:24 7 8 mph 1028mb 45f 29f
10:18 8 9 mph 1027.9mb 45f 29f
10:12 8 10 mph 1028mb 45f 29f
10:06 7 9 mph 1027.8mb 45f 29f
10:00 6 8 mph 1027.8mb 45f 29f
9:54 6 7 mph 1027.7mb 45f 29f
9:48 6 7 mph 1027.7mb 45f 30f
9:36 5 7 mph 1027.7mb 45f 29f
9:30 6 7 mph 1027.5mb 45f 29f
9:24 5 7 mph 1027.4mb 45f 29f
9:18 6 8 mph 1027.6mb 45f 29f
9:12 8 9 mph 1027.5mb 45f 29f
9:06 7 8 mph 1027.5mb 45f 29f
9:00 6 8 mph 1027.4mb 45f 29f
8:54 7 10 mph 1027.6mb 45f 29f
8:48 9 10 mph 1027.7mb 45f 29f
8:36 8 10 mph 1027.7mb 45f 29f
8:30 8 9 mph 1027.5mb 45f 29f
8:24 7 9 mph 1027.4mb 45f 29f
8:18 7 9 mph 1027.3mb 45f 29f
8:12 7 9 mph 1027.3mb 45f 29f
8:06 8 10 mph - - -
8:00 9 10 mph 1027mb 45f 29f
7:54 8 9 mph 1027.1mb 45f 29f
7:48 6 7 mph 1027.1mb 45f 29f
7:36 8 9 mph 1026.8mb 45f 29f
7:30 8 9 mph 1026.8mb 45f 29f
7:24 8 9 mph 1026.9mb 45f 29f
7:18 8 9 mph 1026.8mb 45f 29f
7:12 8 10 mph 1026.8mb 45f 29f
7:06 8 10 mph 1026.9mb 45f 29f
7:00 8 10 mph 1026.9mb 45f 29f
6:54 8 9 mph 1027mb 45f 29f
6:48 7 9 mph 1026.8mb 45f 29f
6:36 7 8 mph 1026.5mb 45f 30f
6:30 7 9 mph 1026.3mb 45f 29f
6:24 7 9 mph 1026.3mb 45f 30f
6:18 7 9 mph 1026.2mb 45f 30f
6:12 7 8 mph 1026.1mb 45f 30f
6:06 6 8 mph 1026mb 45f 30f
6:00 6 8 mph 1026mb 45f 30f
5:54 6 8 mph 1026.1mb 45f 30f
5:48 6 7 mph 1026.1mb 45f 30f
5:36 5 6 mph 1025.9mb 45f 31f
5:30 5 7 mph 1025.8mb 45f 31f
5:24 5 6 mph 1025.8mb 45f 31f
5:18 3 6 mph 1025.6mb 45f 31f
5:12 3 6 mph 1025.7mb 45f 31f
5:06 3 5 mph 1025.8mb 45f 31f
5:00 3 6 mph 1025.9mb 45f 31f
4:54 5 6 mph 1025.8mb 45f 32f
4:48 6 7 mph 1025.9mb 45f 32f
4:36 5 6 mph 1025.8mb 45f 33f
4:30 3
mph
1025.7mb 45f 34f
4:24 3
mph
1025.6mb 45f 35f
4:18 1 2 mph 1025.7mb 45f 36f
4:12 1 2 mph 1025.8mb 45f 36f
4:06 3 5 mph 1025.7mb 45f 36f
4:00 3 5 mph 1025.6mb 45f 36f
3:54 3 7 mph 1025.6mb 45f 36f
3:48 6 8 mph 1025.5mb 45f 37f
3:36  -  mph 1025.4mb 45f 37f
3:30  -  mph 1025.2mb 45f 38f
3:24  -  mph 1025mb 45f 38f
3:18  -  mph 1025mb 45f 38f